Time;durP1;ratioP1;P1;durP2;ratioP2;P2;SDS_P1;SDS_P2;PMS_P1;PMS_P2;Temp;Humidity;BMP_temperature;BMP_pressure;BME280_temperature;BME280_humidity;BME280_pressure;Samples;Min_cycle;Max_cycle;Signal;HPM_P1;HPM_P2
2021/05/13 00:00:14;;;;;;;13.68;2.60;;;;;;;14.61;57.88;100135.44;4972251;28;20051;-64
2021/05/13 00:02:42;;;;;;;7.68;2.40;;;;;;;14.71;59.50;100131.38;4970816;28;20050;-63
2021/05/13 00:05:11;;;;;;;9.43;2.80;;;;;;;14.47;61.57;100126.75;4971449;28;20077;-64
2021/05/13 00:07:39;;;;;;;8.75;2.42;;;;;;;14.39;62.91;100125.75;4971320;28;20054;-63
2021/05/13 00:10:10;;;;;;;7.80;2.55;;;;;;;13.97;64.54;100123.66;4971887;28;20051;-63
2021/05/13 00:15:29;;;;;;;11.80;2.92;;;;;;;14.19;64.58;100123.94;4957615;28;20061;-63
2021/05/13 00:17:57;;;;;;;6.32;2.58;;;;;;;14.43;64.64;100129.44;4958391;28;20497;-63
2021/05/13 00:20:51;;;;;;;16.42;7.82;;;;;;;14.81;63.89;100130.84;4974279;28;20055;-63
2021/05/13 00:23:20;;;;;;;8.77;3.40;;;;;;;14.49;64.93;100130.78;4955342;28;20061;-64
2021/05/13 00:25:50;;;;;;;10.25;3.08;;;;;;;14.65;64.58;100122.50;4957726;28;20050;-66
2021/05/13 00:28:19;;;;;;;12.77;2.90;;;;;;;14.22;66.17;100125.22;4957748;28;20046;-62
2021/05/13 00:30:46;;;;;;;7.90;2.80;;;;;;;14.37;65.71;100127.25;4957246;28;20054;-65
2021/05/13 00:33:14;;;;;;;10.10;2.83;;;;;;;14.35;65.81;100124.84;4975049;28;20058;-63
2021/05/13 00:35:42;;;;;;;8.15;2.50;;;;;;;14.42;66.18;100125.03;4974760;28;20051;-66
2021/05/13 00:38:09;;;;;;;10.43;2.97;;;;;;;14.47;65.64;100124.00;4941859;28;20045;-64
2021/05/13 00:40:36;;;;;;;12.45;2.90;;;;;;;14.57;65.45;100124.25;4974165;28;20059;-63
2021/05/13 00:43:04;;;;;;;8.18;3.30;;;;;;;14.35;65.35;100135.09;4973111;28;20066;-63
2021/05/13 00:45:32;;;;;;;11.82;3.35;;;;;;;14.20;65.72;100130.28;4956668;28;20058;-64
2021/05/13 00:48:05;;;;;;;9.02;3.08;;;;;;;14.30;66.64;100130.63;4941760;28;20495;-64
2021/05/13 00:50:34;;;;;;;10.65;3.30;;;;;;;14.22;66.62;100136.28;4974504;28;20059;-64
2021/05/13 00:53:05;;;;;;;7.80;3.25;;;;;;;14.31;65.65;100132.22;4956831;28;20055;-67
2021/05/13 00:55:33;;;;;;;9.18;3.35;;;;;;;14.23;66.21;100132.34;4973657;28;20058;-64
2021/05/13 00:58:01;;;;;;;7.80;3.38;;;;;;;14.19;66.48;100134.22;4973277;28;20046;-65
2021/05/13 01:02:59;;;;;;;11.68;3.33;;;;;;;14.81;64.70;100144.69;4956846;28;20434;-66
2021/05/13 01:05:28;;;;;;;8.38;3.28;;;;;;;14.55;65.07;100147.97;4972406;28;20054;-65
2021/05/13 01:08:00;;;;;;;9.70;3.00;;;;;;;15.10;64.37;100153.41;4974008;28;20047;-64
2021/05/13 01:10:28;;;;;;;8.60;2.90;;;;;;;15.11;64.72;100157.00;4956852;28;20050;-64
2021/05/13 01:12:59;;;;;;;8.50;2.88;;;;;;;15.13;64.86;100157.44;4955865;28;20047;-67
2021/05/13 01:15:36;;;;;;;8.02;2.75;;;;;;;15.10;65.74;100150.63;4955808;28;20055;-65
2021/05/13 01:18:16;;;;;;;10.77;2.92;;;;;;;15.19;64.75;100154.03;4956502;28;20057;-64
2021/05/13 01:20:45;;;;;;;7.03;2.47;;;;;;;14.83;66.76;100157.06;4973191;28;20058;-65
2021/05/13 01:23:15;;;;;;;6.45;2.42;;;;;;;14.74;67.51;100161.13;4939982;28;20518;-64
2021/05/13 01:25:51;;;;;;;5.05;2.30;;;;;;;14.73;67.58;100148.44;4971689;28;20051;-64
2021/05/13 01:28:26;;;;;;;6.13;2.28;;;;;;;14.55;68.82;100150.72;4973498;28;20123;-68
2021/05/13 01:30:55;;;;;;;8.35;2.45;;;;;;;14.27;69.87;100153.50;4973605;28;20384;-65
2021/05/13 01:33:24;;;;;;;6.95;2.20;;;;;;;14.36;69.77;100151.41;4972649;28;20046;-65
2021/05/13 01:35:52;;;;;;;6.68;2.13;;;;;;;14.46;69.10;100145.34;4972746;28;20077;-64
2021/05/13 01:38:22;;;;;;;6.60;2.03;;;;;;;14.23;70.09;100144.25;4972479;28;20047;-67
2021/05/13 01:40:52;;;;;;;3.88;1.90;;;;;;;14.08;70.66;100138.63;4973318;28;20380;-63
2021/05/13 01:43:19;;;;;;;;;;;;;;;13.99;71.09;100140.72;4973551;28;20047;-64
2021/05/13 01:45:47;;;;;;;7.82;2.30;;;;;;;14.15;71.15;100144.38;4973009;28;19948;-65
2021/05/13 01:48:14;;;;;;;21.67;10.52;;;;;;;14.47;69.50;100143.38;4956337;28;20042;-65
2021/05/13 01:50:42;;;;;;;7.60;2.60;;;;;;;14.81;68.90;100148.28;4972739;28;20059;-64
2021/05/13 01:53:09;;;;;;;5.68;1.88;;;;;;;14.77;68.50;100147.38;4974499;28;20054;-64
2021/05/13 01:55:37;;;;;;;4.90;1.67;;;;;;;14.79;68.95;100156.16;4972899;28;20062;-66
2021/05/13 01:58:04;;;;;;;6.68;2.17;;;;;;;14.94;67.94;100155.34;4973076;28;20079;-65
2021/05/13 02:00:34;;;;;;;8.02;2.05;;;;;;;14.53;69.65;100150.28;4972889;28;20046;-67
2021/05/13 02:03:03;;;;;;;4.30;1.60;;;;;;;14.24;70.79;100148.59;4973230;28;20065;-63
2021/05/13 02:05:31;;;;;;;7.80;1.80;;;;;;;14.51;69.99;100155.34;4972801;28;20054;-65
2021/05/13 02:07:58;;;;;;;8.13;2.15;;;;;;;14.78;69.29;100160.09;4972650;28;20050;-64
2021/05/13 02:10:26;;;;;;;6.63;1.92;;;;;;;14.57;69.77;100156.72;4971927;28;20483;-65
2021/05/13 02:12:56;;;;;;;4.55;1.30;;;;;;;14.27;69.84;100153.50;4972462;28;20047;-66
2021/05/13 02:15:25;;;;;;;3.63;1.33;;;;;;;14.42;70.88;100149.97;4972436;28;20063;-64
2021/05/13 02:17:53;;;;;;;6.35;1.23;;;;;;;14.37;71.00;100164.06;4972545;28;20050;-63
2021/05/13 02:20:23;;;;;;;3.53;1.48;;;;;;;14.21;70.56;100167.94;4972464;28;20470;-64
2021/05/13 02:22:51;;;;;;;5.43;1.23;;;;;;;14.48;70.64;100173.50;4972408;28;20054;-66
2021/05/13 02:25:19;;;;;;;4.63;0.98;;;;;;;14.21;67.82;100174.25;4971841;28;20050;-65
2021/05/13 02:27:46;;;;;;;1.90;0.63;;;;;;;13.57;70.98;100179.78;4971678;28;20062;-66
2021/05/13 02:30:14;;;;;;;3.47;0.95;;;;;;;13.13;73.19;100191.72;4972679;28;20118;-67
2021/05/13 02:32:44;;;;;;;2.42;0.95;;;;;;;13.38;71.54;100195.34;4972479;28;20062;-67
2021/05/13 02:35:13;;;;;;;3.53;0.90;;;;;;;13.98;70.01;100195.28;4955286;28;20458;-65
2021/05/13 02:37:41;;;;;;;4.72;0.98;;;;;;;13.72;69.64;100199.63;4971941;28;20054;-66
2021/05/13 02:40:10;;;;;;;3.97;1.02;;;;;;;13.19;72.35;100201.44;4972962;28;20055;-65
2021/05/13 02:42:38;;;;;;;7.00;1.35;;;;;;;13.17;71.57;100206.50;4955422;28;20504;-65
2021/05/13 02:45:06;;;;;;;4.18;0.90;;;;;;;13.45;72.66;100209.41;4971630;28;20057;-65
2021/05/13 02:47:34;;;;;;;4.13;0.98;;;;;;;12.82;72.28;100205.22;4970980;28;20055;-65
2021/05/13 02:50:06;;;;;;;2.00;0.63;;;;;;;11.96;76.22;100215.38;4972282;28;20051;-67
2021/05/13 02:52:34;;;;;;;1.65;0.77;;;;;;;11.83;77.49;100224.69;4971318;28;20395;-65
2021/05/13 02:55:03;;;;;;;5.13;0.98;;;;;;;12.35;77.56;100218.47;4954590;28;20058;-64
2021/05/13 02:57:30;;;;;;;3.25;0.93;;;;;;;12.38;76.15;100217.81;4971374;28;20058;-65
2021/05/13 03:00:14;;;;;;;3.15;0.90;;;;;;;13.00;75.63;100214.94;4972064;28;20081;-64
2021/05/13 03:02:43;;;;;;;2.58;1.00;;;;;;;12.93;73.66;100217.47;4954722;28;20051;-64
2021/05/13 03:05:14;;;;;;;1.38;0.80;;;;;;;12.35;73.93;100223.19;4971305;28;20112;-65
2021/05/13 03:07:49;;;;;;;4.30;1.00;;;;;;;12.21;76.50;100228.97;4954453;28;20055;-67
2021/05/13 03:10:34;;;;;;;4.20;1.17;;;;;;;12.24;76.17;100221.97;4972063;28;20399;-64
2021/05/13 03:13:02;;;;;;;5.35;0.90;;;;;;;12.32;75.84;100229.41;4954580;28;20588;-66
2021/05/13 03:15:30;;;;;;;4.00;1.10;;;;;;;12.71;75.14;100226.13;4954254;28;20055;-63
2021/05/13 03:17:58;;;;;;;2.42;0.90;;;;;;;13.03;73.84;100222.59;4972195;28;20055;-65
2021/05/13 03:20:33;;;;;;;3.35;0.68;;;;;;;12.18;73.57;100232.44;4972159;28;20046;-66
2021/05/13 03:23:01;;;;;;;3.60;0.80;;;;;;;11.21;74.52;100247.31;4972140;28;20046;-65
2021/05/13 03:25:31;;;;;;;4.78;0.90;;;;;;;11.19;78.31;100248.78;4971804;28;20502;-64
2021/05/13 03:28:09;;;;;;;6.32;0.70;;;;;;;11.25;76.95;100248.28;4971243;28;20055;-64
2021/05/13 03:30:42;;;;;;;3.97;0.90;;;;;;;11.41;77.20;100253.25;4971171;28;20497;-66
2021/05/13 03:33:10;;;;;;;3.85;0.95;;;;;;;11.32;76.39;100251.34;4970889;28;20055;-63
2021/05/13 03:35:38;;;;;;;4.13;0.90;;;;;;;11.87;75.26;100258.75;4971779;28;20053;-66
2021/05/13 03:38:07;;;;;;;2.38;0.65;;;;;;;11.26;74.86;100254.63;4971609;28;20483;-66
2021/05/13 03:40:35;;;;;;;2.80;0.80;;;;;;;11.31;75.22;100244.19;4971751;28;20043;-66
2021/05/13 03:43:03;;;;;;;1.83;0.60;;;;;;;11.26;76.81;100249.09;4971664;28;20367;-66
2021/05/13 03:45:31;;;;;;;2.95;0.60;;;;;;;11.37;76.58;100244.81;4971614;28;20055;-64
2021/05/13 03:48:02;;;;;;;3.58;0.80;;;;;;;11.07;77.41;100248.66;4954559;28;20055;-66
2021/05/13 03:50:36;;;;;;;4.35;0.90;;;;;;;11.63;77.86;100256.56;4976897;28;20057;-66
2021/05/13 03:53:05;;;;;;;4.05;0.70;;;;;;;11.51;76.13;100253.69;4942808;28;20387;-64
2021/05/13 03:55:33;;;;;;;4.45;1.48;;;;;;;11.70;74.82;100265.16;4974969;28;20070;-65
2021/05/13 03:58:02;;;;;;;6.03;1.15;;;;;;;11.90;73.22;100258.09;4974782;28;20406;-66
2021/05/13 04:00:38;;;;;;;2.53;0.60;;;;;;;11.70;75.57;100265.16;4976000;28;20059;-66
2021/05/13 04:03:06;;;;;;;2.13;0.65;;;;;;;11.45;75.44;100262.50;4976294;28;20058;-64
2021/05/13 04:05:33;;;;;;;3.28;1.08;;;;;;;12.39;73.23;100255.34;4973923;28;20403;-63
2021/05/13 04:08:03;;;;;;;4.43;0.70;;;;;;;12.55;71.65;100263.00;4974540;28;20042;-67
2021/05/13 04:10:30;;;;;;;4.65;1.05;;;;;;;12.39;71.98;100262.81;4974542;28;20491;-67
2021/05/13 04:13:01;;;;;;;2.83;0.63;;;;;;;12.85;69.62;100250.72;4957507;28;20051;-64
2021/05/13 04:15:28;;;;;;;3.78;1.00;;;;;;;12.57;69.27;100258.75;4975785;28;20407;-65
2021/05/13 04:17:55;;;;;;;6.15;1.00;;;;;;;12.61;71.85;100262.47;4975866;28;20050;-64
2021/05/13 04:20:23;;;;;;;3.88;0.80;;;;;;;12.28;71.20;100262.41;4975310;28;20043;-64
2021/05/13 04:22:54;;;;;;;3.47;0.80;;;;;;;12.19;72.22;100266.34;4974420;28;20058;-65
2021/05/13 04:25:21;;;;;;;4.07;0.90;;;;;;;12.28;72.93;100267.09;4957520;28;20403;-67
2021/05/13 04:27:48;;;;;;;2.75;0.75;;;;;;;12.83;71.47;100262.09;4973974;28;20055;-68
2021/05/13 04:30:16;;;;;;;3.03;0.90;;;;;;;12.80;70.26;100273.84;4974928;28;20486;-63
2021/05/13 04:32:43;;;;;;;6.00;1.00;;;;;;;12.71;69.92;100275.84;4957464;28;20043;-65
2021/05/13 04:35:12;;;;;;;3.78;0.95;;;;;;;13.01;70.29;100271.03;4974681;28;20340;-65
2021/05/13 04:37:40;;;;;;;3.30;0.80;;;;;;;13.42;68.77;100277.28;4973716;28;20054;-67
2021/05/13 04:40:07;;;;;;;4.13;0.90;;;;;;;12.98;68.66;100268.94;4974631;28;20407;-68
2021/05/13 04:42:35;;;;;;;4.07;0.73;;;;;;;13.41;68.52;100277.63;4974962;28;20042;-65
2021/05/13 04:45:04;;;;;;;6.55;0.98;;;;;;;13.75;67.04;100279.19;4957266;28;20057;-64
2021/05/13 04:50:03;;;;;;;4.28;0.88;;;;;;;13.60;67.21;100280.66;4974917;28;20058;-67
2021/05/13 04:52:30;;;;;;;4.28;0.80;;;;;;;13.32;64.79;100277.72;4975715;28;20054;-65
2021/05/13 04:54:58;;;;;;;3.97;0.88;;;;;;;12.70;67.15;100290.84;4975356;28;20614;-67
2021/05/13 04:57:26;;;;;;;4.30;0.88;;;;;;;12.77;68.77;100284.75;4957393;28;20419;-69
2021/05/13 04:59:55;;;;;;;3.67;0.80;;;;;;;12.75;69.42;100287.03;4957332;28;20051;-65
2021/05/13 05:02:22;;;;;;;4.67;0.90;;;;;;;13.06;69.10;100285.47;4975136;28;20050;-65
2021/05/13 05:04:50;;;;;;;3.40;0.90;;;;;;;13.34;67.99;100282.91;4974103;28;20053;-68
2021/05/13 05:07:18;;;;;;;5.63;1.10;;;;;;;13.44;67.57;100285.28;4974562;28;20046;-64
2021/05/13 05:09:45;;;;;;;3.70;0.93;;;;;;;13.48;67.57;100289.75;4974091;28;20411;-65
2021/05/13 05:12:13;;;;;;;4.10;0.90;;;;;;;13.20;67.97;100293.47;4974328;28;20047;-65
2021/05/13 05:14:42;;;;;;;4.35;0.73;;;;;;;12.87;67.69;100298.16;4974108;28;20054;-62
2021/05/13 05:17:10;;;;;;;4.75;1.02;;;;;;;13.51;67.62;100289.06;4973972;28;20070;-64
2021/05/13 05:19:39;;;;;;;5.03;0.95;;;;;;;13.98;64.58;100294.19;4974127;28;20050;-69
2021/05/13 05:22:08;;;;;;;5.07;1.23;;;;;;;13.72;65.46;100299.25;4973475;28;20062;-68
2021/05/13 05:24:35;;;;;;;2.30;0.90;;;;;;;13.92;64.44;100306.66;4973398;28;20061;-68
2021/05/13 05:27:03;;;;;;;3.58;0.88;;;;;;;13.94;63.16;100304.34;4973093;28;20046;-65
2021/05/13 05:29:31;;;;;;;3.00;0.90;;;;;;;13.49;62.12;100307.19;4972842;28;20063;-66
2021/05/13 05:31:58;;;;;;;3.03;0.82;;;;;;;14.01;63.14;100308.16;4956819;28;20055;-69
2021/05/13 05:34:26;;;;;;;5.43;0.90;;;;;;;14.35;62.35;100306.88;4972922;28;20487;-64
2021/05/13 05:36:53;;;;;;;5.07;0.88;;;;;;;14.00;62.32;100309.28;4956285;28;20054;-63
2021/05/13 05:39:21;;;;;;;4.43;0.90;;;;;;;12.93;64.41;100314.22;4973358;28;20153;-65
2021/05/13 05:41:49;;;;;;;3.33;0.90;;;;;;;13.17;64.88;100311.56;4974305;28;20054;-68
2021/05/13 05:44:16;;;;;;;4.68;1.23;;;;;;;12.71;65.33;100316.53;4965641;28;20055;-66
2021/05/13 05:46:44;;;;;;;2.88;1.00;;;;;;;12.88;65.61;100319.97;4954373;28;20047;-67
2021/05/13 05:49:11;;;;;;;4.00;1.10;;;;;;;12.97;64.44;100308.81;4954319;29;20059;-65
2021/05/13 05:51:39;;;;;;;3.80;1.10;;;;;;;13.42;64.76;100301.41;4953384;29;20530;-66
2021/05/13 05:54:06;;;;;;;7.93;1.40;;;;;;;13.20;64.86;100301.78;4953925;28;20047;-65
2021/05/13 05:56:34;;;;;;;6.65;1.27;;;;;;;13.25;64.10;100304.34;4955493;28;20051;-64
2021/05/13 05:59:03;;;;;;;8.57;1.35;;;;;;;13.03;63.55;100308.28;4955172;28;20070;-69
2021/05/13 06:01:30;;;;;;;5.15;1.20;;;;;;;12.77;66.18;100312.38;4971978;28;20054;-64
2021/05/13 06:03:58;;;;;;;6.68;1.38;;;;;;;12.49;65.59;100306.59;4972648;28;20039;-65
2021/05/13 06:06:26;;;;;;;5.32;1.45;;;;;;;12.98;63.91;100305.72;4973514;28;20058;-69
2021/05/13 06:08:53;;;;;;;7.85;1.52;;;;;;;12.13;65.59;100304.38;4972003;28;20050;-64
2021/05/13 06:11:21;;;;;;;7.03;1.20;;;;;;;12.21;65.99;100299.97;4939089;28;20051;-65
2021/05/13 06:13:48;;;;;;;4.05;0.98;;;;;;;12.45;66.04;100298.16;4972704;28;20054;-63
2021/05/13 06:16:16;;;;;;;5.82;1.50;;;;;;;12.73;65.36;100303.97;4972559;28;20059;-66
2021/05/13 06:18:51;;;;;;;5.70;1.40;;;;;;;12.85;65.98;100304.03;4940037;28;20051;-64
2021/05/13 06:21:19;;;;;;;7.28;1.60;;;;;;;13.69;64.38;100289.66;4972106;28;20046;-68
2021/05/13 06:23:52;;;;;;;7.60;1.38;;;;;;;13.47;63.67;100302.00;4954670;28;20058;-65
2021/05/13 06:26:24;;;;;;;5.03;1.30;;;;;;;12.89;64.86;100304.16;4972271;28;20057;-70
2021/05/13 06:29:01;;;;;;;3.38;1.13;;;;;;;12.93;63.65;100296.81;4956310;28;20055;-66
2021/05/13 06:31:29;;;;;;;7.57;1.30;;;;;;;13.53;63.69;100300.59;4970413;28;20050;-69
2021/05/13 06:33:57;;;;;;;6.82;1.30;;;;;;;13.76;62.82;100297.41;4971626;28;20071;-66
2021/05/13 06:36:25;;;;;;;5.55;1.50;;;;;;;13.98;62.47;100292.22;4972703;28;20431;-65
2021/05/13 06:38:53;;;;;;;8.82;3.80;;;;;;;13.85;61.21;100293.38;4955072;28;20047;-65
2021/05/13 06:41:20;;;;;;;8.02;2.88;;;;;;;14.06;60.62;100293.25;4972019;28;20058;-64
2021/05/13 06:43:48;;;;;;;7.10;1.60;;;;;;;14.05;59.87;100286.91;4971243;28;20051;-67
2021/05/13 06:46:16;;;;;;;7.93;1.70;;;;;;;13.98;61.60;100292.22;4972551;28;20061;-69
2021/05/13 06:48:49;;;;;;;6.63;1.40;;;;;;;13.76;60.38;100297.41;4972421;28;20050;-65
2021/05/13 06:51:17;;;;;;;7.63;1.63;;;;;;;14.10;61.25;100303.31;4971722;28;20053;-67
2021/05/13 06:53:45;;;;;;;6.05;1.30;;;;;;;14.31;60.08;100292.13;4954761;28;20047;-64
2021/05/13 06:56:14;;;;;;;5.45;1.50;;;;;;;14.11;59.75;100287.47;4972082;28;20055;-63
2021/05/13 06:58:41;;;;;;;4.47;1.33;;;;;;;14.26;59.06;100295.13;4955870;28;20054;-68
2021/05/13 07:01:09;;;;;;;6.78;1.70;;;;;;;14.46;60.25;100308.03;4971566;28;20054;-66
2021/05/13 07:03:36;;;;;;;4.35;1.60;;;;;;;14.76;59.13;100301.03;4971091;28;20061;-64
2021/05/13 07:06:04;;;;;;;7.22;1.63;;;;;;;14.20;59.48;100299.25;4971877;28;20050;-64
2021/05/13 07:08:32;;;;;;;6.53;1.70;;;;;;;13.74;60.29;100313.56;4970977;28;20051;-68
2021/05/13 07:11:00;;;;;;;8.07;2.10;;;;;;;14.12;60.54;100314.03;4971625;28;20372;-67
2021/05/13 07:13:28;;;;;;;4.65;1.55;;;;;;;14.63;60.18;100319.66;4971165;28;20058;-66
2021/05/13 07:15:55;;;;;;;7.13;1.77;;;;;;;14.55;59.21;100320.63;4954134;28;20046;-68
2021/05/13 07:18:23;;;;;;;5.40;1.67;;;;;;;15.13;59.16;100313.59;4970984;28;20058;-64
2021/05/13 07:20:50;;;;;;;9.82;1.83;;;;;;;15.29;56.69;100311.66;4971961;28;20376;-65
2021/05/13 07:23:17;;;;;;;5.68;1.58;;;;;;;14.87;58.30;100313.22;4969514;28;20055;-66
2021/05/13 07:25:47;;;;;;;5.78;1.23;;;;;;;15.29;58.29;100317.22;4970947;28;20380;-66
2021/05/13 07:28:15;;;;;;;6.88;1.75;;;;;;;14.22;57.83;100314.38;4954161;28;20127;-65
2021/05/13 07:30:42;;;;;;;6.18;1.58;;;;;;;13.87;60.94;100317.94;4971476;28;20051;-64
2021/05/13 07:33:10;;;;;;;7.75;1.40;;;;;;;14.40;59.33;100317.75;4954505;28;20576;-64
2021/05/13 07:35:38;;;;;;;6.40;1.52;;;;;;;14.80;59.00;100317.78;4954263;28;20059;-63
2021/05/13 07:38:06;;;;;;;4.88;1.67;;;;;;;15.42;58.16;100329.09;4971427;28;20047;-64
2021/05/13 07:40:36;;;;;;;6.90;2.47;;;;;;;15.47;57.39;100320.50;4954668;28;20077;-65
2021/05/13 07:43:03;;;;;;;13.70;4.90;;;;;;;15.48;56.35;100320.16;4954225;28;20064;-70
2021/05/13 07:45:33;;;;;;;7.72;1.65;;;;;;;15.27;56.41;100329.84;4971200;28;20059;-68
2021/05/13 07:48:00;;;;;;;8.23;1.40;;;;;;;15.02;57.51;100331.09;4954413;28;20054;-67
2021/05/13 07:50:29;;;;;;;6.05;2.10;;;;;;;15.48;57.37;100325.69;4953270;28;20499;-68
2021/05/13 07:52:57;;;;;;;6.35;1.80;;;;;;;15.65;56.32;100322.63;4970845;28;20050;-68
2021/05/13 07:55:24;;;;;;;7.28;2.72;;;;;;;15.75;56.37;100324.88;4952013;28;20066;-66
2021/05/13 07:57:51;;;;;;;7.85;2.15;;;;;;;15.78;55.12;100326.91;4953018;28;20066;-66
2021/05/13 08:00:19;;;;;;;6.28;1.60;;;;;;;15.28;57.01;100326.72;4971127;28;20054;-65
2021/05/13 08:02:46;;;;;;;6.45;1.65;;;;;;;15.27;56.54;100327.84;4970810;28;20050;-67
2021/05/13 08:05:14;;;;;;;6.32;1.60;;;;;;;15.73;55.54;100320.81;4971158;28;20438;-67
2021/05/13 08:07:41;;;;;;;5.70;1.58;;;;;;;15.63;55.45;100316.63;4970940;28;20050;-61
2021/05/13 08:10:09;;;;;;;5.75;1.40;;;;;;;15.91;56.06;100307.38;4937924;28;20051;-67
2021/05/13 08:12:37;;;;;;;7.72;1.95;;;;;;;15.91;54.92;100310.16;4959367;28;20039;-65
2021/05/13 08:15:11;;;;;;;5.78;1.70;;;;;;;16.14;54.04;100319.47;4967169;28;20046;-66
2021/05/13 08:17:40;;;;;;;4.70;1.73;;;;;;;15.86;54.17;100316.00;4966527;28;20047;-65
2021/05/13 08:20:09;;;;;;;5.38;1.58;;;;;;;15.75;53.89;100312.94;4968008;28;20131;-65
2021/05/13 08:22:37;;;;;;;5.32;1.30;;;;;;;15.61;53.94;100318.13;4956330;28;20510;-67
2021/05/13 08:25:06;;;;;;;6.60;1.75;;;;;;;15.57;55.97;100323.56;4967311;28;20054;-66
2021/05/13 08:27:34;;;;;;;6.88;1.70;;;;;;;16.02;54.85;100325.13;4967264;28;20495;-64
2021/05/13 08:30:03;;;;;;;4.70;1.23;;;;;;;16.42;54.16;100314.59;4968031;28;20051;-63
2021/05/13 08:32:31;;;;;;;8.05;1.35;;;;;;;16.06;54.57;100317.66;4956923;28;20051;-62
2021/05/13 08:34:58;;;;;;;6.28;1.90;;;;;;;15.99;54.40;100317.53;4957027;28;20061;-64
2021/05/13 08:37:26;;;;;;;8.77;2.03;;;;;;;16.04;54.68;100318.03;4960744;28;20050;-67
2021/05/13 08:39:53;;;;;;;8.02;1.75;;;;;;;16.33;54.54;100309.22;4960358;28;20879;-66
2021/05/13 08:42:21;;;;;;;5.70;1.27;;;;;;;16.37;54.68;100312.09;4970705;28;20047;-65
2021/05/13 08:44:48;;;;;;;5.15;1.50;;;;;;;16.44;53.73;100312.25;4971341;28;20057;-66
2021/05/13 08:47:16;;;;;;;8.25;1.80;;;;;;;16.71;54.67;100306.56;4970378;28;20054;-67
2021/05/13 08:49:43;;;;;;;5.00;1.38;;;;;;;16.48;54.37;100299.25;4970036;28;20392;-67
2021/05/13 08:52:12;;;;;;;7.07;1.95;;;;;;;16.36;53.06;100311.28;4960147;28;20080;-61
2021/05/13 08:55:00;;;;;;;5.55;1.38;;;;;;;16.52;51.73;100298.19;4969869;28;20067;-61
2021/05/13 08:57:27;;;;;;;3.80;1.10;;;;;;;16.06;53.14;100309.34;4971347;28;20054;-61
2021/05/13 08:59:57;;;;;;;5.93;1.25;;;;;;;16.10;53.69;100301.91;4970397;28;20283;-62
2021/05/13 09:02:28;;;;;;;3.70;1.30;;;;;;;16.21;54.31;100303.78;4970184;28;20622;-64
2021/05/13 09:04:58;;;;;;;5.00;1.15;;;;;;;16.37;52.70;100304.53;4970530;28;20500;-63
2021/05/13 09:07:28;;;;;;;5.20;1.45;;;;;;;16.12;53.50;100307.91;4970162;28;20043;-66
2021/05/13 09:09:59;;;;;;;6.50;1.27;;;;;;;16.06;54.65;100303.78;4970525;28;20090;-65
2021/05/13 09:12:30;;;;;;;;;;;;;;;15.71;53.25;100295.38;4969918;28;20057;-62
2021/05/13 09:15:10;;;;;;;5.25;1.30;;;;;;;15.71;53.80;100287.84;4960409;28;19922;-63
2021/05/13 09:17:38;;;;;;;5.45;1.08;;;;;;;15.70;54.14;100296.53;4969630;28;20051;-62
2021/05/13 09:20:22;;;;;;;4.50;1.20;;;;;;;16.12;54.54;100291.25;4970631;28;20051;-65
2021/05/13 09:22:49;;;;;;;3.35;0.95;;;;;;;16.71;51.88;100295.44;4958805;28;20055;-64
2021/05/13 09:25:17;;;;;;;3.30;1.25;;;;;;;16.80;51.01;100293.25;4970055;28;20114;-64
2021/05/13 09:27:47;;;;;;;6.55;1.50;;;;;;;16.59;50.70;100286.41;4970286;28;20050;-65
2021/05/13 09:30:21;;;;;;;3.95;1.30;;;;;;;17.01;52.53;100287.31;4970042;28;20050;-68
2021/05/13 09:33:01;;;;;;;5.28;1.20;;;;;;;17.24;50.03;100281.81;4969409;28;20046;-64
2021/05/13 09:35:37;;;;;;;9.07;1.17;;;;;;;17.31;49.75;100284.72;4969013;28;20050;-63
2021/05/13 09:38:09;;;;;;;4.30;1.77;;;;;;;17.50;49.61;100281.94;4961903;28;20046;-64
2021/05/13 09:40:37;;;;;;;4.80;1.30;;;;;;;17.34;49.80;100290.34;4959795;28;20051;-62
2021/05/13 09:43:16;;;;;;;6.45;0.98;;;;;;;17.26;50.19;100287.81;4969210;28;20051;-65
2021/05/13 09:45:50;;;;;;;5.05;1.40;;;;;;;17.19;49.39;100282.09;4969647;28;20058;-65
2021/05/13 09:48:39;;;;;;;6.53;1.65;;;;;;;17.12;50.02;100291.09;4969300;28;20268;-64
2021/05/13 09:51:25;;;;;;;3.97;1.10;;;;;;;16.99;50.17;100286.06;4967944;28;20054;-64
2021/05/13 09:54:08;;;;;;;4.10;1.45;;;;;;;16.94;50.77;100289.94;4968899;28;20043;-66
2021/05/13 09:56:38;;;;;;;10.18;4.68;;;;;;;17.22;51.08;100293.31;4966548;28;20495;-65
2021/05/13 09:59:38;;;;;;;7.75;3.85;;;;;;;17.19;51.34;100291.25;4968349;28;20053;-64
2021/05/13 10:02:08;;;;;;;5.05;2.05;;;;;;;16.67;50.62;100285.38;4902330;29;20050;-66
2021/05/13 10:04:35;;;;;;;15.33;10.10;;;;;;;16.81;51.13;100283.72;4901688;28;20048;-66
2021/05/13 10:07:03;;;;;;;29.95;11.50;;;;;;;16.67;53.51;100288.16;4917212;29;20588;-63
2021/05/13 10:09:31;;;;;;;13.48;6.35;;;;;;;16.67;54.45;100280.63;4915782;29;20054;-64
2021/05/13 10:12:20;;;;;;;29.10;15.55;;;;;;;16.97;53.65;100289.22;4915211;29;20059;-67
2021/05/13 10:14:50;;;;;;;31.13;18.88;;;;;;;17.10;51.38;100285.13;4916080;29;20451;-66
2021/05/13 10:17:21;;;;;;;20.20;11.75;;;;;;;17.11;53.50;100283.13;4915477;29;20074;-65
2021/05/13 10:19:55;;;;;;;14.30;8.13;;;;;;;17.15;48.25;100284.81;4887084;29;20428;-64
2021/05/13 10:22:22;;;;;;;21.48;13.52;;;;;;;17.12;48.43;100279.97;4914269;29;20052;-66
2021/05/13 10:25:29;;;;;;;13.75;7.43;;;;;;;16.39;49.03;100282.75;4915694;29;20052;-64
2021/05/13 10:28:01;;;;;;;18.65;11.00;;;;;;;16.02;52.11;100273.16;4916044;29;20055;-61
2021/05/13 10:30:33;;;;;;;12.77;6.15;;;;;;;15.98;51.51;100274.22;4916575;29;20460;-65
2021/05/13 10:33:10;;;;;;;5.95;2.38;;;;;;;16.28;52.37;100273.38;4917210;29;20134;-66
2021/05/13 10:35:41;;;;;;;21.10;10.90;;;;;;;16.85;52.23;100264.31;4914735;29;20155;-64
2021/05/13 10:38:12;;;;;;;14.25;5.00;;;;;;;16.77;51.32;100259.78;4922431;28;20055;-65
2021/05/13 10:43:14;;;;;;;17.30;6.90;;;;;;;17.20;50.33;100261.44;4969611;28;20054;-62
2021/05/13 10:45:43;;;;;;;11.38;4.65;;;;;;;17.09;47.02;100257.63;4951220;28;20047;-61
2021/05/13 10:48:26;;;;;;;5.43;2.35;;;;;;;17.11;49.42;100260.84;4968835;28;20051;-61
2021/05/13 10:50:59;;;;;;;14.38;7.70;;;;;;;17.28;47.86;100247.28;4967538;28;20513;-63
2021/05/13 10:53:42;;;;;;;8.88;3.42;;;;;;;17.23;46.98;100246.78;4970431;28;20042;-67
2021/05/13 10:56:27;;;;;;;9.23;5.03;;;;;;;16.98;46.98;100251.84;4951792;28;20402;-64
2021/05/13 10:59:04;;;;;;;6.70;2.03;;;;;;;16.94;46.86;100244.63;4967525;28;20058;-61
2021/05/13 11:01:33;;;;;;;4.68;1.52;;;;;;;17.07;48.56;100221.81;4966227;28;20062;-64
2021/05/13 11:04:36;;;;;;;10.80;4.68;;;;;;;16.85;47.33;100234.53;4968267;28;20605;-66
2021/05/13 11:07:28;;;;;;;8.80;3.88;;;;;;;17.16;48.69;100229.94;4898898;29;20528;-64
2021/05/13 11:09:58;;;;;;;10.63;3.17;;;;;;;17.53;46.87;100223.50;4897626;29;20567;-68
2021/05/13 11:12:37;;;;;;;8.57;3.67;;;;;;;17.27;45.47;100215.06;4884552;29;20048;-69
2021/05/13 11:20:46;;;;;;;10.50;4.10;;;;;;;17.06;47.55;100219.41;4882641;29;20481;-66
2021/05/13 11:23:21;;;;;;;7.22;2.63;;;;;;;17.19;46.92;100206.97;4898894;29;20055;-65
2021/05/13 11:26:11;;;;;;;9.82;3.65;;;;;;;17.44;46.89;100214.56;4882205;29;20496;-63
2021/05/13 11:28:45;;;;;;;9.52;4.00;;;;;;;18.07;46.84;100205.66;4896708;29;20040;-68
2021/05/13 11:31:20;;;;;;;7.93;3.08;;;;;;;17.87;44.56;100204.94;4881138;29;20060;-67
2021/05/13 11:33:56;;;;;;;9.80;3.63;;;;;;;17.84;45.15;100202.91;4900060;29;20044;-64
2021/05/13 11:36:30;;;;;;;6.38;2.40;;;;;;;17.95;44.73;100206.69;4899129;29;20060;-65
2021/05/13 11:38:59;;;;;;;4.60;2.10;;;;;;;17.17;44.25;100212.09;4882574;29;20048;-64
2021/05/13 11:41:27;;;;;;;5.35;1.55;;;;;;;17.21;46.91;100213.75;4938529;28;20047;-62
2021/05/13 11:43:54;;;;;;;6.88;2.28;;;;;;;17.04;46.17;100214.22;4967819;28;20070;-63
2021/05/13 11:46:24;;;;;;;8.93;3.05;;;;;;;17.43;46.83;100214.94;4967820;28;20054;-65
2021/05/13 11:48:52;;;;;;;5.72;2.50;;;;;;;17.52;47.43;100210.75;4967402;28;20059;-65
2021/05/13 11:51:30;;;;;;;5.95;1.98;;;;;;;17.25;47.72;100217.41;4954761;28;20055;-64
2021/05/13 11:54:02;;;;;;;6.60;2.72;;;;;;;17.62;48.87;100220.47;4958670;28;20062;-61